Time;durP1;ratioP1;P1;durP2;ratioP2;P2;SDS_P1;SDS_P2;PMS_P1;PMS_P2;Temp;Humidity;BMP_temperature;BMP_pressure;BME280_temperature;BME280_humidity;BME280_pressure;Samples;Min_cycle;Max_cycle;Signal;HPM_P1;HPM_P2
2022/05/18 00:00:54;;;;;;;6.28;4.70;;;;;;;30.08;75.74;100947.81;5058076;28;69737;-36
2022/05/18 00:03:30;;;;;;;10.68;6.43;;;;;;;29.60;75.44;100885.94;5059125;28;65783;-38
2022/05/18 00:06:02;;;;;;;10.65;5.80;;;;;;;30.12;76.46;100968.00;5054479;28;69942;-38
2022/05/18 00:08:36;;;;;;;17.33;7.10;;;;;;;30.16;76.11;100971.91;5057098;28;66678;-38
2022/05/18 00:11:19;;;;;;;10.73;6.40;;;;;;;30.22;75.64;100973.78;5057283;28;69397;-37
2022/05/18 00:13:52;;;;;;;15.80;8.00;;;;;;;30.25;75.80;100986.06;5055179;28;65436;-38
2022/05/18 00:16:25;;;;;;;11.05;7.35;;;;;;;30.28;75.48;100975.66;5058658;28;69397;-39
2022/05/18 00:18:56;;;;;;;16.25;6.75;;;;;;;30.27;75.75;100968.56;5057515;28;66188;-37
2022/05/18 00:21:27;;;;;;;13.90;6.82;;;;;;;30.34;75.56;100979.41;5058678;28;70415;-38
2022/05/18 00:24:01;;;;;;;14.80;7.10;;;;;;;30.34;75.71;100973.13;5058886;28;66236;-38
2022/05/18 00:26:33;;;;;;;11.68;7.10;;;;;;;30.38;74.52;100974.38;5052425;28;69795;-37
2022/05/18 00:29:03;;;;;;;10.88;7.32;;;;;;;30.34;75.54;100956.88;5040446;28;65900;-37
2022/05/18 00:31:34;;;;;;;10.93;5.97;;;;;;;30.46;75.19;100966.00;5061279;28;70192;-37
2022/05/18 00:34:05;;;;;;;20.25;6.85;;;;;;;30.50;74.48;100964.53;5061687;28;65608;-34
2022/05/18 00:36:36;;;;;;;10.50;4.93;;;;;;;30.42;74.47;100943.97;5057488;28;70536;-35
2022/05/18 00:39:06;;;;;;;8.40;5.40;;;;;;;30.61;73.14;100958.41;5041297;28;66289;-34
2022/05/18 00:41:38;;;;;;;8.38;5.28;;;;;;;30.63;73.76;100956.34;5039580;28;70176;-34
2022/05/18 00:44:08;;;;;;;7.63;5.07;;;;;;;30.66;73.14;100960.50;5041447;28;66416;-35
2022/05/18 00:46:39;;;;;;;10.02;5.38;;;;;;;30.72;74.02;100968.56;5053676;28;69272;-35
2022/05/18 00:49:09;;;;;;;5.97;4.20;;;;;;;30.90;70.07;100975.19;5049040;28;66122;-34
2022/05/18 00:51:53;;;;;;;5.25;4.32;;;;;;;30.78;70.74;100958.72;5048827;28;69706;-33
2022/05/18 00:54:29;;;;;;;6.03;4.20;;;;;;;30.73;69.60;100924.22;5041354;28;66018;-33
2022/05/18 00:57:09;;;;;;;4.13;3.80;;;;;;;31.15;68.97;100983.34;5046196;28;70443;-33
2022/05/18 00:59:49;;;;;;;4.10;3.78;;;;;;;31.23;68.46;100977.66;5040260;28;66131;-33
2022/05/18 01:02:24;;;;;;;4.35;2.95;;;;;;;30.74;67.76;100887.13;5051742;28;71346;-32
2022/05/18 01:04:59;;;;;;;4.15;3.55;;;;;;;30.73;67.52;100878.16;5061591;28;66587;-33
2022/05/18 01:07:39;;;;;;;3.83;3.53;;;;;;;30.86;67.36;100889.97;5059514;28;68832;-33
2022/05/18 01:10:11;;;;;;;4.07;3.55;;;;;;;31.42;67.12;100970.41;5059836;28;65743;-34
2022/05/18 01:12:41;;;;;;;8.93;4.15;;;;;;;31.41;67.09;100968.75;5061185;28;69045;-34
2022/05/18 01:15:18;;;;;;;4.95;3.30;;;;;;;31.52;66.07;100981.59;5059680;28;66352;-34
2022/05/18 01:17:53;;;;;;;3.95;3.58;;;;;;;31.46;66.14;100966.22;5060521;28;69948;-33
2022/05/18 01:20:28;;;;;;;4.85;2.90;;;;;;;31.62;65.98;100991.91;5052052;28;66230;-33
2022/05/18 01:23:10;;;;;;;4.28;3.67;;;;;;;31.46;66.03;100963.50;5040874;28;70359;-33
2022/05/18 01:25:40;;;;;;;;;;;;;;;31.32;66.12;100991.75;5040414;28;66633;-33
2022/05/18 01:28:11;;;;;;;4.75;3.15;;;;;;;31.66;65.27;100987.72;5055035;28;70577;-34
2022/05/18 01:30:47;;;;;;;7.07;3.40;;;;;;;31.27;65.10;100919.22;5053679;28;65767;-34
2022/05/18 01:33:19;;;;;;;5.93;3.40;;;;;;;31.21;64.90;100898.44;5040037;28;69888;-33
2022/05/18 01:35:50;;;;;;;5.82;3.25;;;;;;;31.76;64.73;100982.63;5041569;28;66283;-33
2022/05/18 01:38:21;;;;;;;3.97;3.25;;;;;;;31.72;64.56;100975.16;5039125;28;69929;-32
2022/05/18 01:41:01;;;;;;;4.10;3.25;;;;;;;31.87;63.92;100982.91;5040014;28;66254;-33
2022/05/18 01:43:47;;;;;;;3.30;3.00;;;;;;;31.87;63.87;100983.75;5046957;28;69565;-33
2022/05/18 01:46:20;;;;;;;3.20;2.90;;;;;;;31.91;63.69;100987.72;5044186;28;66504;-33
2022/05/18 01:48:53;;;;;;;6.30;2.85;;;;;;;31.44;63.50;100900.53;5039063;28;69616;-33
2022/05/18 01:51:38;;;;;;;3.63;2.80;;;;;;;31.45;63.25;100899.47;5040694;28;65699;-33
2022/05/18 01:54:08;;;;;;;3.63;2.88;;;;;;;31.97;63.58;100977.84;5047450;28;70667;-33
2022/05/18 01:56:40;;;;;;;3.25;2.95;;;;;;;31.97;62.89;100967.81;5058054;28;65445;-34
2022/05/18 01:59:11;;;;;;;3.07;2.43;;;;;;;32.08;63.35;100995.25;5060343;28;69983;-33
2022/05/18 02:01:42;;;;;;;3.17;2.83;;;;;;;32.10;63.10;100987.72;5058567;28;65521;-33
2022/05/18 02:04:13;;;;;;;3.72;3.20;;;;;;;32.08;62.21;100984.41;5058719;28;71194;-33
2022/05/18 02:06:44;;;;;;;5.10;3.05;;;;;;;32.16;62.74;100984.09;5039834;28;66181;-33
2022/05/18 02:09:16;;;;;;;2.88;2.67;;;;;;;32.02;62.55;100970.69;5044649;28;69936;-32
2022/05/18 02:11:51;;;;;;;2.58;2.38;;;;;;;32.23;62.52;100995.69;5059612;28;66508;-33
2022/05/18 02:14:23;;;;;;;3.90;2.63;;;;;;;32.26;62.37;100993.38;5041611;28;69781;-33
2022/05/18 02:16:54;;;;;;;2.60;2.40;;;;;;;32.27;62.86;100994.22;5048582;28;65208;-33
2022/05/18 02:19:24;;;;;;;2.83;2.63;;;;;;;32.23;62.11;100982.13;5039835;28;69469;-34
2022/05/18 02:21:55;;;;;;;4.20;2.55;;;;;;;32.24;62.42;100978.38;5042982;28;65865;-32
2022/05/18 02:24:26;;;;;;;2.90;2.70;;;;;;;32.12;62.27;100953.84;5055257;28;68965;-33
2022/05/18 02:26:57;;;;;;;3.25;2.40;;;;;;;32.39;62.24;100975.25;5058067;28;65375;-33
2022/05/18 02:29:27;;;;;;;5.65;2.70;;;;;;;32.34;61.73;100962.34;5058900;28;69888;-33
2022/05/18 02:31:58;;;;;;;4.72;2.78;;;;;;;32.42;61.48;100970.19;5030643;28;66592;-33
2022/05/18 02:34:29;;;;;;;3.42;2.70;;;;;;;32.45;61.72;100967.00;5051780;28;69666;-34
2022/05/18 02:36:59;;;;;;;2.58;2.35;;;;;;;32.45;61.20;100958.88;5054635;28;65927;-33
2022/05/18 02:39:30;;;;;;;4.57;2.58;;;;;;;32.51;61.32;100967.19;5054638;28;70344;-32
2022/05/18 02:42:01;;;;;;;2.47;2.28;;;;;;;32.11;61.24;100894.41;5056727;28;66206;-33
2022/05/18 02:44:32;;;;;;;2.20;1.95;;;;;;;32.49;61.30;100960.13;5022562;28;68543;-33
2022/05/18 02:47:04;;;;;;;2.10;1.90;;;;;;;32.55;61.21;100961.09;5054099;28;66271;-34
2022/05/18 02:49:34;;;;;;;2.70;2.50;;;;;;;32.56;61.29;100959.19;5054475;28;69573;-33
2022/05/18 02:52:05;;;;;;;4.45;2.45;;;;;;;32.56;60.90;100959.19;5038391;28;66132;-33
2022/05/18 02:57:25;;;;;;;3.22;2.20;;;;;;;32.54;61.06;100966.72;5054057;28;66727;-33
2022/05/18 02:59:56;;;;;;;3.22;2.65;;;;;;;32.42;61.09;100948.47;5056889;28;70358;-33
2022/05/18 03:02:26;;;;;;;4.22;2.78;;;;;;;32.56;60.63;100986.34;5038011;28;65898;-33
2022/05/18 03:04:58;;;;;;;2.63;2.35;;;;;;;32.54;60.69;101005.59;5040230;28;69267;-32
2022/05/18 03:07:28;;;;;;;2.60;2.40;;;;;;;32.44;61.00;101000.66;5039184;28;66513;-34
2022/05/18 03:10:01;;;;;;;3.17;2.65;;;;;;;32.54;61.04;101038.19;5050948;28;70297;-34
2022/05/18 03:12:32;;;;;;;3.45;2.65;;;;;;;32.55;60.86;101039.00;5058666;28;65826;-35
2022/05/18 03:15:03;;;;;;;4.30;2.40;;;;;;;32.53;60.89;101057.41;5061350;28;70160;-33
2022/05/18 03:17:33;;;;;;;8.73;2.88;;;;;;;32.48;61.02;101071.66;5061742;28;66378;-34
2022/05/18 03:20:05;;;;;;;2.67;2.47;;;;;;;32.49;61.12;101076.88;5058243;28;70808;-34
2022/05/18 03:25:25;;;;;;;6.15;3.45;;;;;;;32.42;61.31;101038.06;5040875;28;70211;-33
2022/05/18 03:27:56;;;;;;;3.40;3.10;;;;;;;32.45;61.30;101012.34;5040888;28;65977;-33
2022/05/18 03:30:27;;;;;;;3.55;3.00;;;;;;;32.43;61.65;101018.03;5042528;28;70529;-34
2022/05/18 03:32:57;;;;;;;4.97;3.40;;;;;;;32.40;61.38;101023.91;5041878;28;66397;-34
2022/05/18 03:35:28;;;;;;;4.25;3.15;;;;;;;32.42;61.67;101040.78;5054407;28;70176;-32
2022/05/18 03:37:58;;;;;;;3.97;3.15;;;;;;;32.41;62.02;101028.28;5049482;28;66503;-32
2022/05/18 03:40:30;;;;;;;3.50;3.20;;;;;;;32.39;62.06;101035.00;5059199;28;70086;-34
2022/05/18 03:43:00;;;;;;;3.42;3.10;;;;;;;32.35;61.73;101040.06;5048741;28;66017;-33
2022/05/18 03:45:35;;;;;;;4.37;3.47;;;;;;;32.37;62.19;101039.81;5062060;28;70110;-34
2022/05/18 03:48:08;;;;;;;4.60;3.30;;;;;;;32.32;62.17;101023.38;5061438;28;67099;-33
2022/05/18 03:50:41;;;;;;;3.47;3.17;;;;;;;31.87;62.01;100945.75;5051353;28;69223;-33
2022/05/18 03:53:12;;;;;;;4.38;3.13;;;;;;;32.33;62.20;101008.75;5057329;28;65945;-34
2022/05/18 03:55:44;;;;;;;;;;;;;;;31.97;63.46;101013.94;5060393;28;69835;-33
2022/05/18 03:58:15;;;;;;;3.55;3.10;;;;;;;32.26;62.24;101003.38;5061591;28;66793;-34
2022/05/18 04:00:47;;;;;;;3.53;3.23;;;;;;;31.76;62.31;100911.25;5058036;28;69367;-32
2022/05/18 04:03:20;;;;;;;3.38;3.08;;;;;;;31.78;62.18;100909.16;5049504;28;66642;-34
2022/05/18 04:05:52;;;;;;;4.00;3.60;;;;;;;31.82;62.25;100904.94;5054854;28;69933;-33
2022/05/18 04:08:23;;;;;;;3.58;3.28;;;;;;;32.26;62.39;100981.66;5059481;28;66592;-34
2022/05/18 04:10:55;;;;;;;3.15;2.85;;;;;;;32.15;61.84;100974.28;5061804;28;70008;-33
2022/05/18 04:13:26;;;;;;;3.20;3.00;;;;;;;32.22;61.88;100994.06;5042166;28;65067;-34
2022/05/18 04:15:56;;;;;;;3.33;3.03;;;;;;;32.22;62.06;100994.06;5062567;28;69755;-33
2022/05/18 04:18:27;;;;;;;3.25;2.95;;;;;;;32.22;62.16;101003.03;5060867;28;66367;-33
2022/05/18 04:21:00;;;;;;;3.83;3.53;;;;;;;31.32;61.88;100858.94;5047012;28;71252;-34
2022/05/18 04:23:31;;;;;;;3.60;3.30;;;;;;;32.15;61.84;100993.28;5038367;28;65569;-34
2022/05/18 04:26:02;;;;;;;3.50;3.30;;;;;;;32.20;62.14;100998.88;5041925;28;70564;-33
2022/05/18 04:28:33;;;;;;;3.85;3.55;;;;;;;32.21;61.81;100995.13;5039682;28;66243;-35
2022/05/18 04:31:04;;;;;;;4.20;3.90;;;;;;;32.14;62.10;100978.91;5041238;28;70378;-33
2022/05/18 04:33:35;;;;;;;4.10;3.80;;;;;;;32.20;62.35;100988.84;5041157;28;66458;-33
2022/05/18 04:36:06;;;;;;;4.95;4.40;;;;;;;32.19;62.07;100978.22;5040744;28;69670;-33
2022/05/18 04:38:36;;;;;;;5.88;4.10;;;;;;;32.10;62.13;100960.59;5052739;28;65600;-34
2022/05/18 04:41:07;;;;;;;3.97;3.67;;;;;;;32.23;62.15;100972.13;5041179;28;69784;-33
2022/05/18 04:43:38;;;;;;;4.15;3.85;;;;;;;32.24;62.26;100956.66;5052382;28;65329;-35
2022/05/18 04:46:09;;;;;;;4.20;3.90;;;;;;;32.19;61.90;100942.94;5023512;28;70122;-32
2022/05/18 04:48:41;;;;;;;3.95;3.72;;;;;;;32.22;62.13;100945.19;5045781;28;66125;-33
2022/05/18 04:51:11;;;;;;;4.13;3.92;;;;;;;32.21;62.40;100940.84;5042412;28;70282;-33
2022/05/18 04:53:42;;;;;;;4.25;3.95;;;;;;;32.16;62.25;100927.94;5040773;28;66548;-34
2022/05/18 04:56:13;;;;;;;4.72;4.38;;;;;;;32.17;62.04;100931.47;5041127;28;71031;-34
2022/05/18 04:58:43;;;;;;;4.07;3.78;;;;;;;32.19;62.30;100926.66;5039993;28;65587;-34
2022/05/18 05:01:14;;;;;;;4.65;4.35;;;;;;;32.21;62.41;100928.09;5041321;28;69412;-34
2022/05/18 05:03:45;;;;;;;4.72;4.43;;;;;;;32.22;62.08;100931.63;5039917;28;66428;-34
2022/05/18 05:06:15;;;;;;;7.13;6.53;;;;;;;32.17;62.27;100917.91;5040043;28;71606;-33
2022/05/18 05:08:46;;;;;;;6.80;6.38;;;;;;;32.20;62.30;100934.56;5040882;28;66764;-33
2022/05/18 05:11:16;;;;;;;6.80;6.40;;;;;;;32.20;62.33;100939.16;5056876;28;70729;-34
2022/05/18 05:13:47;;;;;;;5.80;5.50;;;;;;;32.16;62.51;100930.66;5044710;28;66561;-33
2022/05/18 05:16:18;;;;;;;6.57;6.07;;;;;;;32.16;62.52;100932.53;5040762;28;69097;-33
2022/05/18 05:18:49;;;;;;;6.10;5.70;;;;;;;32.08;62.45;100913.84;5057710;28;66389;-33
2022/05/18 05:21:19;;;;;;;6.35;5.88;;;;;;;32.04;62.76;100913.50;5054917;28;68832;-33
2022/05/18 05:23:50;;;;;;;6.40;6.00;;;;;;;32.13;62.27;100922.16;5058475;28;66195;-33
2022/05/18 05:26:20;;;;;;;6.68;6.28;;;;;;;32.17;62.93;100912.47;5059441;28;69231;-33
2022/05/18 05:28:51;;;;;;;6.47;6.00;;;;;;;32.12;62.72;100894.16;5040020;28;66828;-33
2022/05/18 05:31:21;;;;;;;6.30;5.90;;;;;;;32.17;62.72;100885.34;5046507;28;70153;-33
2022/05/18 05:33:52;;;;;;;6.55;6.07;;;;;;;32.07;62.45;100857.91;5058035;28;66458;-34
2022/05/18 05:36:23;;;;;;;6.05;5.75;;;;;;;32.15;62.81;100876.59;5041208;28;69736;-32
2022/05/18 05:38:54;;;;;;;6.20;5.80;;;;;;;32.07;62.34;100856.06;5021897;28;66039;-33
2022/05/18 05:41:28;;;;;;;6.47;6.05;;;;;;;31.66;62.53;100781.63;5039963;28;70432;-34
2022/05/18 05:43:59;;;;;;;5.80;5.50;;;;;;;32.15;62.80;100860.31;5040624;28;65619;-33
2022/05/18 05:46:30;;;;;;;6.05;5.65;;;;;;;32.10;62.84;100852.06;5055790;28;69654;-34
2022/05/18 05:49:01;;;;;;;8.13;7.53;;;;;;;32.15;62.89;100849.44;5058588;28;65638;-34
2022/05/18 05:51:31;;;;;;;6.95;6.47;;;;;;;32.13;62.65;100840.75;5058197;28;70194;-33
2022/05/18 05:54:02;;;;;;;7.10;6.70;;;;;;;32.16;63.01;100834.84;5055807;28;65577;-34
2022/05/18 05:56:33;;;;;;;7.95;7.20;;;;;;;32.15;62.88;100825.03;5040445;28;69966;-34
2022/05/18 05:59:03;;;;;;;6.13;5.82;;;;;;;32.14;62.80;100826.09;5044883;28;66222;-32
2022/05/18 06:01:34;;;;;;;6.68;6.28;;;;;;;31.93;62.83;100793.00;5057489;28;69767;-32
2022/05/18 06:04:07;;;;;;;7.75;7.25;;;;;;;32.16;63.07;100826.72;5053303;28;66190;-32
2022/05/18 06:06:38;;;;;;;6.53;6.03;;;;;;;32.15;63.50;100816.88;5051535;28;70069;-33
2022/05/18 06:09:09;;;;;;;6.35;5.95;;;;;;;32.15;63.26;100825.03;5039180;28;66138;-33
2022/05/18 06:11:40;;;;;;;6.90;6.30;;;;;;;32.16;63.16;100829.41;5039187;28;69924;-33
2022/05/18 06:14:16;;;;;;;6.65;6.15;;;;;;;32.15;63.06;100828.59;5054782;28;65164;-33
2022/05/18 06:16:47;;;;;;;6.40;6.00;;;;;;;32.17;63.36;100841.91;5058089;28;70192;-34
2022/05/18 06:19:18;;;;;;;9.47;6.43;;;;;;;32.15;63.67;100844.03;5060297;28;65162;-33
2022/05/18 06:21:50;;;;;;;6.28;5.88;;;;;;;32.15;63.35;100839.44;5056670;28;69901;-34
2022/05/18 06:24:20;;;;;;;6.60;6.20;;;;;;;32.12;63.46;100834.47;5057741;28;65924;-33
2022/05/18 06:26:51;;;;;;;7.00;6.50;;;;;;;32.07;63.48;100820.78;5059278;28;70221;-33
2022/05/18 06:29:22;;;;;;;6.25;5.80;;;;;;;32.13;63.61;100829.88;5047009;28;66525;-33
2022/05/18 06:31:52;;;;;;;6.55;6.15;;;;;;;32.11;63.45;100824.66;5038433;28;70278;-33
2022/05/18 06:34:24;;;;;;;6.63;6.22;;;;;;;32.17;63.42;100833.78;5040170;28;66468;-33
2022/05/18 06:36:54;;;;;;;6.63;6.03;;;;;;;32.14;63.48;100831.53;5038444;28;69930;-33
2022/05/18 06:39:25;;;;;;;7.18;6.63;;;;;;;31.59;63.48;100735.63;5037711;28;66190;-33
2022/05/18 06:41:58;;;;;;;6.32;5.93;;;;;;;31.27;63.33;100669.09;5035402;28;69970;-33
2022/05/18 06:44:29;;;;;;;6.80;6.20;;;;;;;32.16;63.41;100818.56;5039046;28;66105;-33
2022/05/18 06:47:01;;;;;;;6.18;5.78;;;;;;;32.16;63.37;100818.56;5059191;28;70455;-34
2022/05/18 06:49:32;;;;;;;6.30;5.90;;;;;;;32.15;63.53;100814.19;5057939;28;66219;-34
2022/05/18 06:52:03;;;;;;;5.55;5.25;;;;;;;32.16;63.10;100813.13;5042095;28;70222;-33
2022/05/18 06:54:33;;;;;;;6.18;5.78;;;;;;;32.09;63.75;100806.97;5058138;28;66759;-34
2022/05/18 06:57:21;;;;;;;6.10;5.70;;;;;;;32.13;63.50;100814.41;5057155;28;70108;-33
2022/05/18 06:59:52;;;;;;;6.10;5.68;;;;;;;32.13;63.35;100803.56;5044889;28;65704;-32
2022/05/18 07:02:23;;;;;;;5.90;5.50;;;;;;;31.99;63.46;100775.78;5059382;28;69113;-33
2022/05/18 07:04:54;;;;;;;5.40;5.10;;;;;;;32.05;63.49;100785.72;5036844;28;66104;-32
2022/05/18 07:07:24;;;;;;;5.32;5.00;;;;;;;32.13;63.15;100781.84;5042808;28;69883;-33
2022/05/18 07:09:55;;;;;;;5.45;5.15;;;;;;;32.13;63.37;100786.47;5039210;28;66405;-33
2022/05/18 07:12:27;;;;;;;5.78;5.47;;;;;;;32.16;63.43;100786.00;5038825;28;71807;-33
2022/05/18 07:14:58;;;;;;;5.97;5.50;;;;;;;32.05;63.33;100764.00;5039436;28;66244;-34
2022/05/18 07:17:28;;;;;;;5.85;5.45;;;;;;;32.13;63.31;100776.44;5037713;28;69853;-34
2022/05/18 07:20:19;;;;;;;5.95;5.63;;;;;;;32.15;63.11;100773.47;5041265;28;66218;-33
2022/05/18 07:22:51;;;;;;;5.60;5.20;;;;;;;32.15;63.04;100765.31;5037881;28;68278;-34
2022/05/18 07:25:22;;;;;;;6.00;5.70;;;;;;;32.13;63.06;100762.03;5013471;28;65988;-34
2022/05/18 07:27:53;;;;;;;5.70;5.40;;;;;;;32.15;63.12;100760.75;5054541;28;69356;-34
2022/05/18 07:30:44;;;;;;;5.72;5.20;;;;;;;32.15;63.41;100752.63;5055526;28;66172;-33
2022/05/18 07:33:15;;;;;;;5.10;4.80;;;;;;;32.14;63.32;100744.69;5058537;28;69222;-33
2022/05/18 07:35:46;;;;;;;4.93;4.63;;;;;;;32.16;62.82;100737.97;5055662;28;66720;-32
2022/05/18 07:38:19;;;;;;;5.05;4.75;;;;;;;32.16;63.21;100746.13;5054891;28;69696;-32
2022/05/18 07:41:08;;;;;;;4.78;4.47;;;;;;;31.61;63.18;100649.44;5037315;28;65468;-33
2022/05/18 07:43:39;;;;;;;5.03;4.72;;;;;;;32.16;62.81;100742.56;5039575;28;70451;-33
2022/05/18 07:46:10;;;;;;;5.28;4.97;;;;;;;32.16;63.23;100734.44;5038396;28;65394;-33
2022/05/18 07:48:41;;;;;;;5.15;4.85;;;;;;;32.13;63.24;100726.75;5037798;28;70931;-33
2022/05/18 07:51:14;;;;;;;4.95;4.65;;;;;;;32.14;63.35;100720.25;5022472;28;65383;-33
2022/05/18 07:53:44;;;;;;;4.65;4.35;;;;;;;32.15;63.02;100716.47;5036634;28;70433;-33
2022/05/18 07:56:15;;;;;;;4.55;4.18;;;;;;;32.14;63.14;100721.09;5048521;28;68163;-34
2022/05/18 07:58:46;;;;;;;4.85;4.45;;;;;;;32.16;63.29;100707.31;5056994;28;70175;-34
2022/05/18 08:01:17;;;;;;;4.97;4.57;;;;;;;32.15;63.35;100705.63;5062369;28;66500;-34
2022/05/18 08:03:48;;;;;;;5.22;4.93;;;;;;;32.17;63.18;100695.38;5049462;28;70441;-33
2022/05/18 08:06:18;;;;;;;5.05;4.75;;;;;;;32.09;63.46;100679.44;5042598;28;65411;-33
2022/05/18 08:08:49;;;;;;;4.88;4.35;;;;;;;32.05;63.42;100677.19;5040780;28;71350;-34
2022/05/18 08:16:58;;;;;;;5.13;4.75;;;;;;;32.03;63.27;100668.44;5055981;28;65271;-33
2022/05/18 08:19:29;;;;;;;4.75;4.45;;;;;;;31.93;63.33;100651.94;5043281;28;69105;-34
2022/05/18 08:21:59;;;;;;;5.83;5.00;;;;;;;32.16;63.66;100682.88;5041173;28;65905;-35
2022/05/18 08:24:30;;;;;;;5.05;4.80;;;;;;;32.08;63.54;100685.94;5040389;28;69787;-33
2022/05/18 08:27:00;;;;;;;5.15;4.78;;;;;;;32.17;63.47;100698.09;5040769;28;66834;-32
2022/05/18 08:29:31;;;;;;;4.93;4.63;;;;;;;32.15;63.53;100692.06;5042489;28;70703;-33
2022/05/18 08:32:02;;;;;;;5.18;4.88;;;;;;;32.11;63.25;100686.28;5040054;28;65050;-33
2022/05/18 08:34:33;;;;;;;5.40;5.00;;;;;;;32.14;63.79;100696.66;5052479;28;69993;-33
2022/05/18 08:37:04;;;;;;;5.25;4.90;;;;;;;32.15;63.31;100694.78;5041233;28;66793;-34
2022/05/18 08:39:35;;;;;;;5.33;4.93;;;;;;;32.14;63.84;100685.81;5041348;28;68880;-33
2022/05/18 08:42:06;;;;;;;5.55;5.15;;;;;;;32.16;63.33;100694.56;5039490;28;66611;-34
2022/05/18 08:44:36;;;;;;;5.30;5.00;;;;;;;32.16;63.33;100686.41;5041676;28;69897;-34
2022/05/18 08:47:09;;;;;;;5.25;4.88;;;;;;;32.15;63.92;100686.63;5042109;28;66463;-33
2022/05/18 08:50:00;;;;;;;5.38;5.07;;;;;;;31.68;64.22;100626.81;5048850;28;70353;-34
2022/05/18 08:53:02;;;;;;;6.07;5.47;;;;;;;32.07;64.16;100673.41;5041158;28;66302;-34
2022/05/18 08:55:58;;;;;;;6.47;5.47;;;;;;;32.05;64.37;100671.75;5040336;28;70087;-32
2022/05/18 08:58:28;;;;;;;5.30;4.90;;;;;;;32.14;63.77;100674.13;5042276;28;66251;-33
2022/05/18 09:01:05;;;;;;;5.68;5.28;;;;;;;32.01;63.82;100665.16;5041228;28;70318;-34
2022/05/18 09:03:54;;;;;;;5.30;5.00;;;;;;;32.07;64.25;100678.81;5039928;28;66797;-34
2022/05/18 09:06:31;;;;;;;4.93;4.63;;;;;;;32.16;63.78;100669.31;5060166;28;70001;-33
2022/05/18 09:12:05;;;;;;;5.93;5.43;;;;;;;32.11;63.69;100663.75;5038737;28;70589;-33
2022/05/18 09:14:38;;;;;;;6.10;5.70;;;;;;;32.01;63.84;100638.03;5054835;28;66723;-33
2022/05/18 09:17:08;;;;;;;5.55;5.18;;;;;;;32.16;64.12;100658.44;5045764;28;70670;-33
2022/05/18 09:20:03;;;;;;;5.68;5.35;;;;;;;32.11;64.21;100652.91;5040431;28;66300;-33
2022/05/18 09:22:50;;;;;;;5.68;5.25;;;;;;;32.16;64.02;100655.75;5041314;28;69880;-34
2022/05/18 09:25:42;;;;;;;5.15;4.85;;;;;;;32.05;64.59;100660.91;5052765;28;66365;-33
2022/05/18 09:28:53;;;;;;;6.35;5.78;;;;;;;32.04;64.68;100656.56;5037902;28;70110;-34
2022/05/18 09:31:34;;;;;;;6.15;5.75;;;;;;;32.13;64.39;100656.22;5039263;28;66246;-35
2022/05/18 09:34:29;;;;;;;5.93;5.43;;;;;;;32.03;64.41;100660.31;5039878;28;69241;-33
2022/05/18 09:37:36;;;;;;;5.97;5.57;;;;;;;32.03;64.45;100671.16;5042101;28;65567;-33
2022/05/18 09:40:39;;;;;;;5.47;5.10;;;;;;;31.95;64.51;100655.22;5040820;28;70956;-33
2022/05/18 09:43:16;;;;;;;5.55;5.18;;;;;;;32.12;64.13;100665.41;5040522;28;66707;-33
2022/05/18 09:45:48;;;;;;;5.25;4.95;;;;;;;32.14;64.08;100672.25;5039573;28;70070;-34
2022/05/18 09:48:29;;;;;;;5.25;4.95;;;;;;;32.10;64.08;100662.94;5039447;28;66081;-33
2022/05/18 09:51:01;;;;;;;6.18;5.25;;;;;;;32.13;64.27;100688.78;5038569;28;69916;-34
2022/05/18 09:53:31;;;;;;;;;;;;;;;31.81;65.50;100686.28;5041629;28;66356;-32
2022/05/18 09:56:02;;;;;;;5.70;5.30;;;;;;;32.07;64.83;100684.25;5038524;28;70235;-33
2022/05/18 09:58:39;;;;;;;5.90;5.50;;;;;;;32.13;64.51;100694.19;5043962;28;65655;-34
2022/05/18 10:10:36;;;;;;;9.73;8.85;;;;;;;31.52;69.62;100706.94;5052618;28;65624;-36
2022/05/18 10:13:11;;;;;;;10.95;9.27;;;;;;;31.48;70.38;100692.19;5051258;28;70476;-36
2022/05/18 10:16:04;;;;;;;11.27;10.20;;;;;;;31.45;71.30;100704.31;5020695;28;65182;-35
2022/05/18 10:18:42;;;;;;;11.57;9.20;;;;;;;31.41;71.42;100708.53;5056291;28;69419;-34
2022/05/18 10:21:18;;;;;;;12.50;9.50;;;;;;;30.96;71.72;100634.88;5042189;28;66125;-35
2022/05/18 10:24:06;;;;;;;11.07;10.10;;;;;;;31.32;72.42;100702.56;5039847;28;69405;-36
2022/05/18 10:26:41;;;;;;;13.88;9.88;;;;;;;31.32;72.58;100707.19;5058332;28;65768;-34
2022/05/18 10:29:14;;;;;;;9.70;8.75;;;;;;;31.37;72.87;100712.75;5045661;28;70522;-35
2022/05/18 10:32:09;;;;;;;9.07;8.38;;;;;;;30.98;71.45;100640.88;5049283;28;66473;-35
2022/05/18 10:34:46;;;;;;;8.65;8.00;;;;;;;31.11;71.04;100644.25;5057501;28;70499;-40
2022/05/18 10:37:35;;;;;;;7.70;7.18;;;;;;;31.67;71.25;100734.47;5051549;28;66295;-35
2022/05/18 10:40:28;;;;;;;8.80;8.18;;;;;;;31.80;70.40;100737.00;5053602;28;69273;-35
2022/05/18 10:43:28;;;;;;;9.05;8.15;;;;;;;31.29;70.72;100656.13;5053621;28;66124;-34
2022/05/18 10:46:27;;;;;;;8.40;7.78;;;;;;;31.77;69.82;100723.09;5044880;28;69040;-33
2022/05/18 10:49:05;;;;;;;8.70;8.00;;;;;;;31.97;69.80;100729.06;5050273;28;66820;-33
2022/05/18 10:51:41;;;;;;;8.63;7.80;;;;;;;32.00;69.54;100741.34;5038260;28;69646;-34
2022/05/18 10:54:27;;;;;;;8.43;7.82;;;;;;;31.99;69.90;100748.66;5051940;28;66562;-34
2022/05/18 10:57:17;;;;;;;10.13;9.27;;;;;;;31.55;70.18;100672.06;5037804;28;70065;-34
2022/05/18 11:00:08;;;;;;;10.27;9.13;;;;;;;31.61;70.54;100687.41;5059467;28;66569;-34
2022/05/18 11:02:42;;;;;;;;;;;;;;;31.77;71.38;100745.59;5046361;28;70081;-34
2022/05/18 11:05:19;;;;;;;11.13;10.00;;;;;;;32.08;69.90;100751.88;5044135;28;66076;-34
2022/05/18 11:07:51;;;;;;;11.30;10.32;;;;;;;32.00;70.12;100731.31;5058378;28;69266;-33
2022/05/18 11:10:24;;;;;;;13.65;10.98;;;;;;;32.13;70.34;100753.91;5059644;28;67357;-34
2022/05/18 11:13:21;;;;;;;11.80;10.60;;;;;;;32.07;71.14;100754.81;5038995;28;69538;-35
2022/05/18 11:15:56;;;;;;;11.90;10.70;;;;;;;32.12;70.72;100760.38;5043503;28;65823;-35
2022/05/18 11:18:50;;;;;;;12.05;10.82;;;;;;;32.19;70.31;100763.81;5050079;28;70454;-35
2022/05/18 11:21:27;;;;;;;20.65;15.52;;;;;;;31.82;72.76;100764.72;5030821;28;65646;-38
2022/05/18 11:24:08;;;;;;;20.10;15.52;;;;;;;30.93;73.52;100674.06;5050714;28;70115;-38
2022/05/18 11:27:15;;;;;;;17.20;15.20;;;;;;;31.33;74.62;100779.28;5054530;28;65662;-38
2022/05/18 11:30:07;;;;;;;22.30;14.20;;;;;;;31.22;75.67;100782.75;5035905;28;71637;-37
2022/05/18 11:32:46;;;;;;;17.67;11.88;;;;;;;31.11;76.30;100779.72;5054009;28;65820;-38
2022/05/18 11:35:21;;;;;;;11.05;9.98;;;;;;;31.09;76.49;100786.41;5036072;28;69683;-35
2022/05/18 11:38:25;;;;;;;10.30;9.25;;;;;;;30.49;76.95;100705.72;5053325;28;66221;-36
2022/05/18 11:41:27;;;;;;;12.13;9.73;;;;;;;30.79;77.48;100776.28;5052370;28;69668;-38
2022/05/18 11:44:09;;;;;;;;;;;;;;;30.60;78.62;100797.03;5052929;28;67278;-35
2022/05/18 11:46:39;;;;;;;17.42;11.15;;;;;;;30.84;78.02;100794.56;5055500;28;69783;-36
2022/05/18 11:49:54;;;;;;;11.05;9.90;;;;;;;30.69;78.30;100803.00;5055615;28;66916;-36
2022/05/18 11:52:30;;;;;;;12.25;9.75;;;;;;;30.80;78.51;100804.19;5055191;28;69881;-34
2022/05/18 11:55:20;;;;;;;10.82;9.50;;;;;;;30.65;79.36;100807.22;5050471;28;66376;-37
2022/05/18 11:58:07;;;;;;;17.55;9.63;;;;;;;30.73;79.11;100807.78;5047300;28;70231;-36
2022/05/18 12:00:58;;;;;;;17.02;10.63;;;;;;;30.78;79.21;100806.25;5056982;28;66312;-39
2022/05/18 12:04:09;;;;;;;18.05;11.63;;;;;;;30.70;79.48;100805.50;5040757;28;69697;-38
2022/05/18 12:06:52;;;;;;;18.55;12.10;;;;;;;30.73;79.32;100809.66;5056856;28;66710;-40
2022/05/18 12:09:31;;;;;;;13.27;11.77;;;;;;;30.75;79.75;100806.72;5056071;28;69348;-38
2022/05/18 12:12:11;;;;;;;13.50;11.35;;;;;;;30.73;79.76;100805.06;5056790;28;65305;-35
2022/05/18 12:15:21;;;;;;;16.63;11.73;;;;;;;30.64;79.54;100803.66;5057585;28;70201;-36
2022/05/18 12:18:12;;;;;;;16.58;12.32;;;;;;;30.57;79.99;100789.38;5040019;28;66017;-38
2022/05/18 12:21:03;;;;;;;15.97;12.97;;;;;;;30.62;79.94;100810.34;5056907;28;70200;-41
2022/05/18 12:23:47;;;;;;;26.58;13.57;;;;;;;30.69;79.79;100811.94;5031699;28;66216;-37
2022/05/18 12:26:21;;;;;;;22.48;14.85;;;;;;;30.74;79.71;100819.44;5058375;28;70267;-38